Donie, Texas
Current Conditions -  °F | °C
As of 2:35 PM on Saturday 25 Oct 2014 (Local Time) from KLXY Reporting Station
Clear Clear  
Wind Chill: 84°   Ceiling: Unl
Heat Index: 84°   Visibility: 10mi
Dew Point: 62°   Wind: 7mph
Humidity: 48%   Direction: 240°WSW
Pressure: 30.11"   Gusts: NA
Location:  31.48°N, 96.22°W
Report Text: KLXY 251935Z AUTO 24006KT 10SM CLR 29/17 A3011 RMK AO2 T02870166
Loading
Personal Weather Stations






























Interactive Weather Map New forecast layout! Learn more

10-Day Weather Forecast

Advertisements
Track Severe Weather on mobile